createdAt,value
2023-02-07T00:00:44.613Z,1026.76
2023-02-07T00:01:44.665Z,1026.79
2023-02-07T00:02:44.586Z,1026.80
2023-02-07T00:03:44.573Z,1026.75
2023-02-07T00:04:44.556Z,1026.81
2023-02-07T00:05:44.540Z,1026.80
2023-02-07T00:06:44.545Z,1026.78
2023-02-07T00:07:44.509Z,1026.75
2023-02-07T00:08:44.483Z,1026.75
2023-02-07T00:09:44.489Z,1026.79
2023-02-07T00:10:44.495Z,1026.72
2023-02-07T00:11:44.517Z,1026.74
2023-02-07T00:12:44.468Z,1026.73
2023-02-07T00:13:44.560Z,1026.76
2023-02-07T00:14:44.449Z,1026.71
2023-02-07T00:15:44.440Z,1026.71
2023-02-07T00:16:44.512Z,1026.77
2023-02-07T00:17:44.437Z,1026.73
2023-02-07T00:18:44.439Z,1026.69
2023-02-07T00:19:44.395Z,1026.73
2023-02-07T00:20:44.380Z,1026.65
2023-02-07T00:21:44.388Z,1026.58
2023-02-07T00:22:44.468Z,1026.56
2023-02-07T00:23:44.349Z,1026.47
2023-02-07T00:24:44.349Z,1026.53
2023-02-07T00:25:44.308Z,1026.55
2023-02-07T00:26:44.281Z,1026.58
2023-02-07T00:27:44.276Z,1026.54
2023-02-07T00:28:44.419Z,1026.47
2023-02-07T00:29:44.269Z,1026.50
2023-02-07T00:30:44.343Z,1026.54
2023-02-07T00:31:44.314Z,1026.52
2023-02-07T00:32:44.246Z,1026.59
2023-02-07T00:33:44.219Z,1026.58
2023-02-07T00:34:44.243Z,1026.54
2023-02-07T00:35:44.205Z,1026.56
2023-02-07T00:36:44.284Z,1026.62
2023-02-07T00:37:44.180Z,1026.61
2023-02-07T00:38:44.233Z,1026.57
2023-02-07T00:39:44.151Z,1026.62
2023-02-07T00:40:44.181Z,1026.44
2023-02-07T00:41:44.117Z,1026.50
2023-02-07T00:42:44.105Z,1026.51
2023-02-07T00:43:44.111Z,1026.56
2023-02-07T00:44:44.152Z,1026.58
2023-02-07T00:45:44.094Z,1026.62
2023-02-07T00:46:44.076Z,1026.55
2023-02-07T00:47:44.061Z,1026.49
2023-02-07T00:48:44.040Z,1026.49
2023-02-07T00:49:44.022Z,1026.48
2023-02-07T00:50:44.126Z,1026.43
2023-02-07T00:51:44.074Z,1026.47
2023-02-07T00:52:44.035Z,1026.47
2023-02-07T00:53:44.031Z,1026.53
2023-02-07T00:54:43.971Z,1026.48
2023-02-07T00:55:43.975Z,1026.35
2023-02-07T00:56:43.967Z,1026.41
2023-02-07T00:57:43.939Z,1026.47
2023-02-07T00:58:43.930Z,1026.49
2023-02-07T00:59:44.002Z,1026.52
2023-02-07T01:00:43.966Z,1026.49
2023-02-07T01:01:43.885Z,1026.54
2023-02-07T01:02:43.911Z,1026.63
2023-02-07T01:03:43.868Z,1026.57
2023-02-07T01:04:43.907Z,1026.55
2023-02-07T01:05:43.879Z,1026.55
2023-02-07T01:06:43.857Z,1026.55
2023-02-07T01:07:43.820Z,1026.58
2023-02-07T01:08:43.849Z,1026.63
2023-02-07T01:09:43.816Z,1026.61
2023-02-07T01:10:43.806Z,1026.63
2023-02-07T01:11:43.807Z,1026.62
2023-02-07T01:12:43.798Z,1026.63
2023-02-07T01:13:43.778Z,1026.62
2023-02-07T01:14:43.780Z,1026.65
2023-02-07T01:15:43.762Z,1026.65
2023-02-07T01:16:43.783Z,1026.66
2023-02-07T01:17:43.703Z,1026.70
2023-02-07T01:18:43.713Z,1026.62
2023-02-07T01:19:43.683Z,1026.63
2023-02-07T01:20:43.694Z,1026.58
2023-02-07T01:21:43.712Z,1026.51
2023-02-07T01:22:43.690Z,1026.53
2023-02-07T01:23:43.661Z,1026.51
2023-02-07T01:24:43.656Z,1026.54
2023-02-07T01:25:43.615Z,1026.54
2023-02-07T01:26:43.676Z,1026.49
2023-02-07T01:27:43.617Z,1026.48
2023-02-07T01:28:43.621Z,1026.44
2023-02-07T01:29:43.592Z,1026.49
2023-02-07T01:30:43.680Z,1026.46
2023-02-07T01:31:43.734Z,1026.45
2023-02-07T01:32:43.555Z,1026.46
2023-02-07T01:33:43.555Z,1026.45
2023-02-07T01:34:43.557Z,1026.49
2023-02-07T01:35:43.503Z,1026.48
2023-02-07T01:36:43.554Z,1026.43
2023-02-07T01:37:43.509Z,1026.43
2023-02-07T01:38:43.489Z,1026.45
2023-02-07T01:39:43.457Z,1026.45
2023-02-07T01:40:43.489Z,1026.52
2023-02-07T01:41:43.494Z,1026.44
2023-02-07T01:42:43.459Z,1026.42
2023-02-07T01:43:43.433Z,1026.37
2023-02-07T01:44:43.421Z,1026.44
2023-02-07T01:45:43.406Z,1026.45
2023-02-07T01:46:43.391Z,1026.50
2023-02-07T01:47:43.382Z,1026.49
2023-02-07T01:48:43.351Z,1026.51
2023-02-07T01:49:43.422Z,1026.46
2023-02-07T01:50:43.361Z,1026.45
2023-02-07T01:51:43.356Z,1026.46
2023-02-07T01:52:43.355Z,1026.46
2023-02-07T01:53:43.309Z,1026.43
2023-02-07T01:54:43.281Z,1026.47
2023-02-07T01:55:43.346Z,1026.49
2023-02-07T01:56:43.290Z,1026.54
2023-02-07T01:57:43.280Z,1026.51
2023-02-07T01:58:43.241Z,1026.49
2023-02-07T01:59:43.250Z,1026.51
2023-02-07T02:00:43.220Z,1026.49
2023-02-07T02:01:43.275Z,1026.56
2023-02-07T02:02:43.273Z,1026.59
2023-02-07T02:03:43.282Z,1026.64
2023-02-07T02:04:43.171Z,1026.59
2023-02-07T02:05:43.197Z,1026.57
2023-02-07T02:06:43.169Z,1026.56
2023-02-07T02:07:43.162Z,1026.64
2023-02-07T02:08:43.147Z,1026.65
2023-02-07T02:09:43.196Z,1026.73
2023-02-07T02:10:43.109Z,1026.67
2023-02-07T02:11:43.126Z,1026.60
2023-02-07T02:12:43.104Z,1026.60
2023-02-07T02:13:43.096Z,1026.59
2023-02-07T02:14:43.099Z,1026.62
2023-02-07T02:15:43.143Z,1026.62
2023-02-07T02:16:43.034Z,1026.61
2023-02-07T02:17:43.060Z,1026.60
2023-02-07T02:18:43.048Z,1026.58
2023-02-07T02:19:43.038Z,1026.64
2023-02-07T02:20:43.213Z,1026.65
2023-02-07T02:21:42.984Z,1026.69
2023-02-07T02:22:42.993Z,1026.65
2023-02-07T02:23:43.004Z,1026.66
2023-02-07T02:24:42.969Z,1026.63
2023-02-07T02:25:42.943Z,1026.70
2023-02-07T02:26:43.300Z,1026.69
2023-02-07T02:27:42.951Z,1026.73
2023-02-07T02:28:42.932Z,1026.73
2023-02-07T02:29:42.908Z,1026.74
2023-02-07T02:30:42.887Z,1026.76
2023-02-07T02:31:42.949Z,1026.77
2023-02-07T02:32:42.900Z,1026.80
2023-02-07T02:33:42.884Z,1026.79
2023-02-07T02:34:42.865Z,1026.81
2023-02-07T02:35:42.842Z,1026.85
2023-02-07T02:36:42.857Z,1026.82
2023-02-07T02:37:42.854Z,1026.83
2023-02-07T02:38:42.811Z,1026.87
2023-02-07T02:39:42.787Z,1026.79
2023-02-07T02:40:42.793Z,1026.80
2023-02-07T02:41:42.792Z,1026.72
2023-02-07T02:42:42.807Z,1026.73
2023-02-07T02:43:42.772Z,1026.65
2023-02-07T02:44:42.754Z,1026.71
2023-02-07T02:45:42.743Z,1026.70
2023-02-07T02:46:42.785Z,1026.73
2023-02-07T02:47:42.762Z,1026.70
2023-02-07T02:48:42.676Z,1026.70
2023-02-07T02:49:42.678Z,1026.72
2023-02-07T02:50:42.648Z,1026.71
2023-02-07T02:51:42.688Z,1026.68
2023-02-07T02:52:50.696Z,1026.64
2023-02-07T02:53:43.630Z,1026.59
2023-02-07T02:54:42.630Z,1026.60
2023-02-07T02:55:42.646Z,1026.63
2023-02-07T02:56:42.589Z,1026.63
2023-02-07T02:57:42.750Z,1026.64
2023-02-07T02:58:42.599Z,1026.58
2023-02-07T02:59:42.569Z,1026.53
2023-02-07T03:00:42.569Z,1026.57
2023-02-07T03:01:42.609Z,1026.56
2023-02-07T03:02:42.522Z,1026.58
2023-02-07T03:03:42.564Z,1026.59
2023-02-07T03:04:42.503Z,1026.53
2023-02-07T03:05:42.501Z,1026.55
2023-02-07T03:06:42.498Z,1026.51
2023-02-07T03:07:42.481Z,1026.51
2023-02-07T03:08:42.482Z,1026.58
2023-02-07T03:09:42.453Z,1026.58
2023-02-07T03:10:42.432Z,1026.57
2023-02-07T03:11:42.433Z,1026.53
2023-02-07T03:12:42.430Z,1026.56
2023-02-07T03:13:42.460Z,1026.52
2023-02-07T03:14:42.402Z,1026.52
2023-02-07T03:15:42.413Z,1026.57
2023-02-07T03:16:42.395Z,1026.61
2023-02-07T03:17:42.374Z,1026.60
2023-02-07T03:18:42.342Z,1026.69
2023-02-07T03:19:42.389Z,1026.74
2023-02-07T03:20:42.340Z,1026.77
2023-02-07T03:21:42.351Z,1026.74
2023-02-07T03:22:42.310Z,1026.68
2023-02-07T03:23:42.298Z,1026.71
2023-02-07T03:24:42.271Z,1026.71
2023-02-07T03:25:42.300Z,1026.72
2023-02-07T03:26:42.267Z,1026.69
2023-02-07T03:27:42.277Z,1026.65
2023-02-07T03:28:42.248Z,1026.59
2023-02-07T03:29:42.231Z,1026.57
2023-02-07T03:30:42.278Z,1026.61
2023-02-07T03:31:42.338Z,1026.62
2023-02-07T03:32:42.219Z,1026.55
2023-02-07T03:33:42.226Z,1026.58
2023-02-07T03:34:42.177Z,1026.55
2023-02-07T03:35:42.165Z,1026.56
2023-02-07T03:36:42.162Z,1026.60
2023-02-07T03:37:42.134Z,1026.63
2023-02-07T03:38:42.145Z,1026.59
2023-02-07T03:39:42.132Z,1026.57
2023-02-07T03:40:42.092Z,1026.62
2023-02-07T03:41:42.100Z,1026.54
2023-02-07T03:42:42.193Z,1026.58
2023-02-07T03:43:42.071Z,1026.61
2023-02-07T03:44:42.077Z,1026.61
2023-02-07T03:45:42.076Z,1026.65
2023-02-07T03:46:42.097Z,1026.59
2023-02-07T03:47:42.062Z,1026.56
2023-02-07T03:48:42.127Z,1026.61
2023-02-07T03:49:42.012Z,1026.60
2023-02-07T03:50:41.979Z,1026.60
2023-02-07T03:51:41.996Z,1026.63
2023-02-07T03:52:41.987Z,1026.60
2023-02-07T03:53:41.954Z,1026.60
2023-02-07T03:54:41.951Z,1026.64
2023-02-07T03:55:41.960Z,1026.63
2023-02-07T03:56:41.928Z,1026.68
2023-02-07T03:57:41.905Z,1026.66
2023-02-07T03:58:41.892Z,1026.61
2023-02-07T03:59:41.950Z,1026.62
2023-02-07T04:00:41.961Z,1026.68
2023-02-07T04:01:41.876Z,1026.70
2023-02-07T04:02:41.854Z,1026.68
2023-02-07T04:03:41.903Z,1026.65
2023-02-07T04:04:56.551Z,1026.65
2023-02-07T04:05:41.841Z,1026.67
2023-02-07T04:06:41.811Z,1026.64
2023-02-07T04:07:41.838Z,1026.67
2023-02-07T04:08:41.768Z,1026.66
2023-02-07T04:09:41.831Z,1026.68
2023-02-07T04:10:41.786Z,1026.62
2023-02-07T04:11:41.745Z,1026.63
2023-02-07T04:12:41.726Z,1026.61
2023-02-07T04:13:41.726Z,1026.60
2023-02-07T04:14:41.704Z,1026.52
2023-02-07T04:15:41.747Z,1026.50
2023-02-07T04:16:41.712Z,1026.49
2023-02-07T04:17:41.713Z,1026.51
2023-02-07T04:18:41.683Z,1026.58
2023-02-07T04:19:41.658Z,1026.60
2023-02-07T04:20:41.679Z,1026.53
2023-02-07T04:21:41.695Z,1026.53
2023-02-07T04:22:41.644Z,1026.57
2023-02-07T04:23:41.629Z,1026.53
2023-02-07T04:24:41.615Z,1026.52
2023-02-07T04:25:41.623Z,1026.49
2023-02-07T04:26:41.802Z,1026.50
2023-02-07T04:27:41.604Z,1026.50
2023-02-07T04:28:41.546Z,1026.48
2023-02-07T04:29:41.574Z,1026.50
2023-02-07T04:30:41.553Z,1026.50
2023-02-07T04:31:41.598Z,1026.46
2023-02-07T04:32:41.651Z,1026.47
2023-02-07T04:33:41.529Z,1026.45
2023-02-07T04:34:41.475Z,1026.45
2023-02-07T04:35:41.489Z,1026.52
2023-02-07T04:36:41.445Z,1026.45
2023-02-07T04:37:41.462Z,1026.49
2023-02-07T04:38:41.522Z,1026.47
2023-02-07T04:39:41.453Z,1026.47
2023-02-07T04:40:41.444Z,1026.46
2023-02-07T04:41:41.394Z,1026.51
2023-02-07T04:42:41.395Z,1026.48
2023-02-07T04:43:41.395Z,1026.49
2023-02-07T04:44:41.462Z,1026.50
2023-02-07T04:45:41.418Z,1026.51
2023-02-07T04:46:41.401Z,1026.54
2023-02-07T04:47:41.353Z,1026.49
2023-02-07T04:48:41.351Z,1026.52
2023-02-07T04:49:41.305Z,1026.43
2023-02-07T04:50:41.368Z,1026.43
2023-02-07T04:51:41.321Z,1026.41
2023-02-07T04:52:41.284Z,1026.37
2023-02-07T04:53:41.255Z,1026.41
2023-02-07T04:54:41.281Z,1026.39
2023-02-07T04:55:41.237Z,1026.41
2023-02-07T04:56:41.314Z,1026.39
2023-02-07T04:57:41.235Z,1026.39
2023-02-07T04:58:41.215Z,1026.38
2023-02-07T04:59:41.186Z,1026.39
2023-02-07T05:00:41.197Z,1026.40
2023-02-07T05:01:41.185Z,1026.38
2023-02-07T05:02:41.166Z,1026.36
2023-02-07T05:03:41.176Z,1026.51
2023-02-07T05:04:41.194Z,1026.48
2023-02-07T05:05:41.163Z,1026.47
2023-02-07T05:06:41.130Z,1026.48
2023-02-07T05:07:41.147Z,1026.44
2023-02-07T05:08:41.135Z,1026.50
2023-02-07T05:09:41.109Z,1026.46
2023-02-07T05:10:41.110Z,1026.48
2023-02-07T05:11:41.083Z,1026.47
2023-02-07T05:12:41.070Z,1026.43
2023-02-07T05:13:41.038Z,1026.48
2023-02-07T05:14:41.040Z,1026.43
2023-02-07T05:15:41.094Z,1026.43
2023-02-07T05:16:41.052Z,1026.44
2023-02-07T05:17:40.992Z,1026.41
2023-02-07T05:18:41.019Z,1026.47
2023-02-07T05:19:40.992Z,1026.48
2023-02-07T05:20:41.021Z,1026.44
2023-02-07T05:21:40.943Z,1026.49
2023-02-07T05:22:40.952Z,1026.45
2023-02-07T05:23:40.952Z,1026.47
2023-02-07T05:24:40.926Z,1026.45
2023-02-07T05:25:40.903Z,1026.41
2023-02-07T05:26:40.955Z,1026.39
2023-02-07T05:27:40.873Z,1026.40
2023-02-07T05:28:40.910Z,1026.38
2023-02-07T05:29:40.854Z,1026.33
2023-02-07T05:30:40.939Z,1026.29
2023-02-07T05:31:41.000Z,1026.30
2023-02-07T05:32:40.902Z,1026.32
2023-02-07T05:33:40.841Z,1026.30
2023-02-07T05:34:40.816Z,1026.29
2023-02-07T05:35:40.905Z,1026.30
2023-02-07T05:36:40.793Z,1026.26
2023-02-07T05:37:40.818Z,1026.28
2023-02-07T05:38:40.796Z,1026.28
2023-02-07T05:39:40.786Z,1026.31
2023-02-07T05:40:40.755Z,1026.40
2023-02-07T05:41:40.719Z,1026.37
2023-02-07T05:42:40.760Z,1026.38
2023-02-07T05:43:40.712Z,1026.33
2023-02-07T05:44:40.712Z,1026.41
2023-02-07T05:45:41.141Z,1026.39
2023-02-07T05:46:40.671Z,1026.40
2023-02-07T05:47:40.720Z,1026.42
2023-02-07T05:48:40.651Z,1026.40
2023-02-07T05:49:40.656Z,1026.44
2023-02-07T05:50:40.633Z,1026.43
2023-02-07T05:51:40.644Z,1026.45
2023-02-07T05:52:40.620Z,1026.44
2023-02-07T05:53:40.623Z,1026.43
2023-02-07T05:54:55.305Z,1026.40
2023-02-07T05:55:40.868Z,1026.37
2023-02-07T05:56:40.557Z,1026.39
2023-02-07T05:57:40.541Z,1026.41
2023-02-07T05:58:40.566Z,1026.45
2023-02-07T05:59:40.514Z,1026.50
2023-02-07T06:00:40.547Z,1026.52
2023-02-07T06:01:40.517Z,1026.52
2023-02-07T06:02:40.563Z,1026.49
2023-02-07T06:03:40.542Z,1026.54
2023-02-07T06:04:40.548Z,1026.53
2023-02-07T06:05:40.736Z,1026.57
2023-02-07T06:06:41.267Z,1026.56
2023-02-07T06:07:40.447Z,1026.60
2023-02-07T06:08:40.447Z,1026.61
2023-02-07T06:09:40.429Z,1026.65
2023-02-07T06:10:40.456Z,1026.64
2023-02-07T06:11:40.377Z,1026.64
2023-02-07T06:12:40.379Z,1026.62
2023-02-07T06:13:40.360Z,1026.65
2023-02-07T06:14:40.351Z,1026.61
2023-02-07T06:15:40.754Z,1026.68
2023-02-07T06:16:40.355Z,1026.66
2023-02-07T06:17:40.334Z,1026.59
2023-02-07T06:18:40.336Z,1026.68
2023-02-07T06:19:40.317Z,1026.65
2023-02-07T06:20:40.372Z,1026.63
2023-02-07T06:21:46.467Z,1026.58
2023-02-07T06:22:41.304Z,1026.71
2023-02-07T06:23:40.266Z,1026.65
2023-02-07T06:24:40.285Z,1026.66
2023-02-07T06:25:40.670Z,1026.65
2023-02-07T06:26:40.222Z,1026.72
2023-02-07T06:27:40.198Z,1026.70
2023-02-07T06:28:40.198Z,1026.63
2023-02-07T06:29:40.196Z,1026.66
2023-02-07T06:30:40.314Z,1026.72
2023-02-07T06:31:40.205Z,1026.69
2023-02-07T06:32:40.156Z,1026.69
2023-02-07T06:33:40.160Z,1026.72
2023-02-07T06:34:40.163Z,1026.78
2023-02-07T06:35:40.290Z,1026.78
2023-02-07T06:36:40.170Z,1026.82
2023-02-07T06:37:40.112Z,1026.85
2023-02-07T06:38:40.082Z,1026.87
2023-02-07T06:39:40.060Z,1026.87
2023-02-07T06:40:40.094Z,1026.86
2023-02-07T06:41:40.068Z,1026.85
2023-02-07T06:42:40.052Z,1026.87
2023-02-07T06:43:40.023Z,1026.89
2023-02-07T06:44:40.040Z,1026.88
2023-02-07T06:45:40.334Z,1026.93
2023-02-07T06:46:40.003Z,1026.93
2023-02-07T06:47:40.000Z,1026.92
2023-02-07T06:48:40.014Z,1026.89
2023-02-07T06:49:39.963Z,1026.97
2023-02-07T06:50:39.944Z,1026.91
2023-02-07T06:51:39.973Z,1026.97
2023-02-07T06:52:39.958Z,1026.96
2023-02-07T06:53:39.913Z,1026.93
2023-02-07T06:54:39.931Z,1026.96
2023-02-07T06:55:40.403Z,1026.92
2023-02-07T06:56:39.911Z,1026.93
2023-02-07T06:57:39.905Z,1026.86
2023-02-07T06:58:39.864Z,1026.92
2023-02-07T06:59:39.866Z,1026.92
2023-02-07T07:00:39.835Z,1026.92
2023-02-07T07:01:39.899Z,1027.00
2023-02-07T07:02:39.937Z,1027.01
2023-02-07T07:03:39.797Z,1027.07
2023-02-07T07:04:39.818Z,1027.11
2023-02-07T07:05:39.923Z,1027.10
2023-02-07T07:06:39.780Z,1027.17
2023-02-07T07:07:39.782Z,1027.16
2023-02-07T07:08:39.784Z,1027.15
2023-02-07T07:09:39.755Z,1027.12
2023-02-07T07:10:39.806Z,1027.10
2023-02-07T07:11:39.736Z,1027.07
2023-02-07T07:12:39.734Z,1027.15
2023-02-07T07:13:39.691Z,1027.16
2023-02-07T07:14:39.718Z,1027.21
2023-02-07T07:15:40.075Z,1027.24
2023-02-07T07:16:39.693Z,1027.28
2023-02-07T07:17:39.674Z,1027.24
2023-02-07T07:18:39.666Z,1027.30
2023-02-07T07:19:39.643Z,1027.24
2023-02-07T07:20:39.666Z,1027.24
2023-02-07T07:21:39.590Z,1027.17
2023-02-07T07:22:39.604Z,1027.19
2023-02-07T07:23:39.618Z,1027.18
2023-02-07T07:24:39.598Z,1027.21
2023-02-07T07:25:39.941Z,1027.24
2023-02-07T07:26:48.805Z,1027.24
2023-02-07T07:27:40.521Z,1027.30
2023-02-07T07:28:39.729Z,1027.22
2023-02-07T07:29:39.501Z,1027.26
2023-02-07T07:30:39.550Z,1027.22
2023-02-07T07:31:39.561Z,1027.20
2023-02-07T07:32:39.489Z,1027.18
2023-02-07T07:33:39.480Z,1027.14
2023-02-07T07:34:39.502Z,1027.21
2023-02-07T07:35:39.628Z,1027.20
2023-02-07T07:36:39.471Z,1027.20
2023-02-07T07:37:39.411Z,1027.21
2023-02-07T07:38:39.442Z,1027.20
2023-02-07T07:39:39.414Z,1027.16
2023-02-07T07:40:39.865Z,1027.19
2023-02-07T07:41:39.368Z,1027.20
2023-02-07T07:42:39.368Z,1027.18
2023-02-07T07:43:39.382Z,1027.20
2023-02-07T07:44:39.365Z,1027.22
2023-02-07T07:45:39.365Z,1027.26
2023-02-07T07:46:39.412Z,1027.23
2023-02-07T07:47:39.324Z,1027.30
2023-02-07T07:48:39.324Z,1027.32
2023-02-07T07:49:39.289Z,1027.36
2023-02-07T07:50:46.334Z,1027.30
2023-02-07T07:51:39.338Z,1027.34
2023-02-07T07:52:39.284Z,1027.36
2023-02-07T07:53:39.254Z,1027.33
2023-02-07T07:54:39.239Z,1027.37
2023-02-07T07:55:39.244Z,1027.33
2023-02-07T07:56:39.314Z,1027.27
2023-02-07T07:57:39.206Z,1027.27
2023-02-07T07:58:39.189Z,1027.29
2023-02-07T07:59:39.158Z,1027.24
2023-02-07T08:00:43.646Z,1027.25
2023-02-07T08:01:39.142Z,1027.23
2023-02-07T08:02:39.195Z,1027.25
2023-02-07T08:03:39.171Z,1027.29
2023-02-07T08:04:39.119Z,1027.34
2023-02-07T08:05:39.088Z,1027.35
2023-02-07T08:06:39.122Z,1027.33
2023-02-07T08:07:39.135Z,1027.35
2023-02-07T08:08:39.096Z,1027.32
2023-02-07T08:09:39.178Z,1027.39
2023-02-07T08:10:39.295Z,1027.34
2023-02-07T08:11:39.064Z,1027.38
2023-02-07T08:12:39.062Z,1027.38
2023-02-07T08:13:39.036Z,1027.43
2023-02-07T08:14:39.036Z,1027.45
2023-02-07T08:15:38.978Z,1027.45
2023-02-07T08:16:38.992Z,1027.39
2023-02-07T08:17:39.033Z,1027.37
2023-02-07T08:18:38.996Z,1027.42
2023-02-07T08:19:38.967Z,1027.37
2023-02-07T08:20:39.242Z,1027.38
2023-02-07T08:21:38.927Z,1027.32
2023-02-07T08:22:38.947Z,1027.31
2023-02-07T08:23:38.941Z,1027.32
2023-02-07T08:24:38.919Z,1027.28
2023-02-07T08:25:38.889Z,1027.23
2023-02-07T08:26:38.874Z,1027.26
2023-02-07T08:27:38.892Z,1027.23
2023-02-07T08:28:38.882Z,1027.15
2023-02-07T08:29:38.831Z,1027.17
2023-02-07T08:30:39.205Z,1027.27
2023-02-07T08:31:38.926Z,1027.33
2023-02-07T08:32:38.832Z,1027.29
2023-02-07T08:33:38.807Z,1027.34
2023-02-07T08:34:38.820Z,1027.35
2023-02-07T08:35:38.806Z,1027.31
2023-02-07T08:36:38.753Z,1027.32
2023-02-07T08:37:38.753Z,1027.25
2023-02-07T08:38:38.760Z,1027.30
2023-02-07T08:39:38.749Z,1027.33
2023-02-07T08:40:39.266Z,1027.32
2023-02-07T08:41:38.697Z,1027.33
2023-02-07T08:42:38.719Z,1027.35
2023-02-07T08:43:38.693Z,1027.31
2023-02-07T08:44:38.666Z,1027.36
2023-02-07T08:45:38.743Z,1027.39
2023-02-07T08:46:38.663Z,1027.37
2023-02-07T08:47:38.630Z,1027.36
2023-02-07T08:48:38.668Z,1027.32
2023-02-07T08:49:38.645Z,1027.33
2023-02-07T08:50:38.838Z,1027.35
2023-02-07T08:51:38.620Z,1027.35
2023-02-07T08:52:38.618Z,1027.34
2023-02-07T08:53:38.567Z,1027.35
2023-02-07T08:54:38.577Z,1027.35
2023-02-07T08:55:38.543Z,1027.29
2023-02-07T08:56:38.541Z,1027.30
2023-02-07T08:57:38.635Z,1027.31
2023-02-07T08:58:38.496Z,1027.27
2023-02-07T08:59:38.507Z,1027.31
2023-02-07T09:00:38.778Z,1027.31
2023-02-07T09:01:38.544Z,1027.30
2023-02-07T09:02:38.601Z,1027.24
2023-02-07T09:03:38.478Z,1027.28
2023-02-07T09:04:38.426Z,1027.33
2023-02-07T09:05:38.470Z,1027.30
2023-02-07T09:06:38.434Z,1027.30
2023-02-07T09:07:38.410Z,1027.25
2023-02-07T09:08:38.403Z,1027.27
2023-02-07T09:09:38.399Z,1027.31
2023-02-07T09:10:38.859Z,1027.27
2023-02-07T09:11:38.430Z,1027.34
2023-02-07T09:12:38.363Z,1027.32
2023-02-07T09:13:38.372Z,1027.36
2023-02-07T09:14:38.657Z,1027.35
2023-02-07T09:15:38.342Z,1027.36
2023-02-07T09:16:38.411Z,1027.34
2023-02-07T09:17:38.296Z,1027.35
2023-02-07T09:18:38.297Z,1027.36
2023-02-07T09:19:38.279Z,1027.35
2023-02-07T09:20:38.606Z,1027.34
2023-02-07T09:21:38.249Z,1027.38
2023-02-07T09:22:38.219Z,1027.34
2023-02-07T09:23:38.256Z,1027.37
2023-02-07T09:24:38.235Z,1027.28
2023-02-07T09:25:38.230Z,1027.34
2023-02-07T09:26:38.171Z,1027.26
2023-02-07T09:27:38.209Z,1027.25
2023-02-07T09:28:38.177Z,1027.32
2023-02-07T09:29:38.161Z,1027.27
2023-02-07T09:30:39.908Z,1027.24
2023-02-07T09:31:38.200Z,1027.31
2023-02-07T09:32:38.138Z,1027.35
2023-02-07T09:33:38.141Z,1027.34
2023-02-07T09:34:38.091Z,1027.38
2023-02-07T09:35:38.169Z,1027.34
2023-02-07T09:36:38.090Z,1027.33
2023-02-07T09:37:48.831Z,1027.29
2023-02-07T09:38:39.083Z,1027.28
2023-02-07T09:39:38.104Z,1027.33
2023-02-07T09:40:38.287Z,1027.27
2023-02-07T09:41:38.046Z,1027.30
2023-02-07T09:42:38.021Z,1027.27
2023-02-07T09:43:39.094Z,1027.19
2023-02-07T09:44:38.134Z,1027.24
2023-02-07T09:45:38.032Z,1027.20
2023-02-07T09:46:37.965Z,1027.23
2023-02-07T09:47:37.983Z,1027.29
2023-02-07T09:48:37.965Z,1027.28
2023-02-07T09:49:37.964Z,1027.31
2023-02-07T09:50:38.405Z,1027.36
2023-02-07T09:51:37.906Z,1027.34
2023-02-07T09:52:37.887Z,1027.39
2023-02-07T09:53:37.914Z,1027.34
2023-02-07T09:54:37.865Z,1027.32
2023-02-07T09:55:38.183Z,1027.27
2023-02-07T09:56:37.867Z,1027.23
2023-02-07T09:57:38.208Z,1027.21
2023-02-07T09:58:39.843Z,1027.22
2023-02-07T09:59:37.843Z,1027.27
2023-02-07T10:00:38.174Z,1027.27
2023-02-07T10:01:37.871Z,1027.23
2023-02-07T10:02:37.840Z,1027.31
2023-02-07T10:03:37.772Z,1027.28
2023-02-07T10:04:37.769Z,1027.30
2023-02-07T10:05:37.743Z,1027.24
2023-02-07T10:06:40.950Z,1027.25
2023-02-07T10:07:37.749Z,1027.29
2023-02-07T10:08:41.196Z,1027.16
2023-02-07T10:09:37.698Z,1027.23
2023-02-07T10:10:37.687Z,1027.21
2023-02-07T10:11:37.748Z,1027.22
2023-02-07T10:12:37.653Z,1027.26
2023-02-07T10:13:37.653Z,1027.22
2023-02-07T10:14:37.654Z,1027.28
2023-02-07T10:15:37.685Z,1027.31
2023-02-07T10:16:37.611Z,1027.32
2023-02-07T10:17:37.604Z,1027.27
2023-02-07T10:18:37.584Z,1027.28
2023-02-07T10:19:37.588Z,1027.23
2023-02-07T10:20:37.874Z,1027.26
2023-02-07T10:21:37.596Z,1027.19
2023-02-07T10:22:37.596Z,1027.20
2023-02-07T10:23:37.570Z,1027.26
2023-02-07T10:24:37.515Z,1027.22
2023-02-07T10:25:37.638Z,1027.20
2023-02-07T10:26:37.509Z,1027.14
2023-02-07T10:27:37.514Z,1027.20
2023-02-07T10:28:37.506Z,1027.21
2023-02-07T10:29:37.492Z,1027.22
2023-02-07T10:30:37.993Z,1027.23
2023-02-07T10:31:37.561Z,1027.19
2023-02-07T10:32:37.426Z,1027.19
2023-02-07T10:33:37.453Z,1027.28
2023-02-07T10:34:37.429Z,1027.27
2023-02-07T10:35:37.422Z,1027.20
2023-02-07T10:36:37.375Z,1027.28
2023-02-07T10:37:37.474Z,1027.29
2023-02-07T10:38:37.355Z,1027.23
2023-02-07T10:39:37.513Z,1027.26
2023-02-07T10:40:37.696Z,1027.29
2023-02-07T10:41:37.328Z,1027.26
2023-02-07T10:42:37.325Z,1027.25
2023-02-07T10:43:37.553Z,1027.29
2023-02-07T10:44:37.278Z,1027.26
2023-02-07T10:45:37.287Z,1027.31
2023-02-07T10:46:37.308Z,1027.27
2023-02-07T10:47:37.284Z,1027.26
2023-02-07T10:48:37.277Z,1027.26
2023-02-07T10:49:37.271Z,1027.33
2023-02-07T10:50:37.234Z,1027.31
2023-02-07T10:51:37.218Z,1027.32
2023-02-07T10:52:37.196Z,1027.33
2023-02-07T10:53:46.016Z,1027.25
2023-02-07T10:54:38.221Z,1027.31
2023-02-07T10:55:37.169Z,1027.22
2023-02-07T10:56:37.168Z,1027.21
2023-02-07T10:57:37.168Z,1027.22
2023-02-07T10:58:37.156Z,1027.24
2023-02-07T10:59:37.169Z,1027.30
2023-02-07T11:00:37.270Z,1027.34
2023-02-07T11:01:39.359Z,1027.28
2023-02-07T11:02:37.130Z,1027.34
2023-02-07T11:03:37.108Z,1027.28
2023-02-07T11:04:37.058Z,1027.30
2023-02-07T11:05:37.306Z,1027.33
2023-02-07T11:06:37.031Z,1027.28
2023-02-07T11:07:47.493Z,1027.26
2023-02-07T11:08:38.040Z,1027.30
2023-02-07T11:09:37.012Z,1027.30
2023-02-07T11:10:36.986Z,1027.27
2023-02-07T11:11:37.075Z,1027.27
2023-02-07T11:12:36.998Z,1027.27
2023-02-07T11:13:36.988Z,1027.25
2023-02-07T11:14:40.117Z,1027.27
2023-02-07T11:15:38.178Z,1027.27
2023-02-07T11:16:44.670Z,1027.25
2023-02-07T11:17:36.946Z,1027.29
2023-02-07T11:18:36.927Z,1027.29
2023-02-07T11:19:36.913Z,1027.23
2023-02-07T11:20:36.874Z,1027.27
2023-02-07T11:21:36.904Z,1027.29
2023-02-07T11:23:12.580Z,1027.28
2023-02-07T11:23:36.857Z,1027.26
2023-02-07T11:24:36.864Z,1027.21
2023-02-07T11:25:37.236Z,1027.23
2023-02-07T11:26:36.850Z,1027.23
2023-02-07T11:27:36.815Z,1027.21
2023-02-07T11:28:36.788Z,1027.23
2023-02-07T11:29:36.796Z,1027.32
2023-02-07T11:30:36.814Z,1027.29
2023-02-07T11:31:36.837Z,1027.26
2023-02-07T11:32:36.803Z,1027.29
2023-02-07T11:33:36.721Z,1027.30
2023-02-07T11:34:36.723Z,1027.26
2023-02-07T11:35:37.029Z,1027.24
2023-02-07T11:36:36.724Z,1027.22
2023-02-07T11:37:36.703Z,1027.23
2023-02-07T11:38:36.744Z,1027.29
2023-02-07T11:39:36.653Z,1027.24
2023-02-07T11:40:36.679Z,1027.23
2023-02-07T11:41:36.652Z,1027.21
2023-02-07T11:42:36.656Z,1027.21
2023-02-07T11:43:36.639Z,1027.20
2023-02-07T11:44:36.723Z,1027.23
2023-02-07T11:45:36.964Z,1027.20
2023-02-07T11:46:36.646Z,1027.21
2023-02-07T11:47:36.583Z,1027.21
2023-02-07T11:48:36.601Z,1027.23
2023-02-07T11:49:36.565Z,1027.19
2023-02-07T11:50:36.780Z,1027.18
2023-02-07T11:51:36.535Z,1027.18
2023-02-07T11:52:36.557Z,1027.18
2023-02-07T11:53:36.491Z,1027.19
2023-02-07T11:54:36.510Z,1027.26
2023-02-07T11:55:36.895Z,1027.19
2023-02-07T11:56:36.472Z,1027.10
2023-02-07T11:57:36.504Z,1027.21
2023-02-07T11:58:36.489Z,1027.14
2023-02-07T11:59:36.493Z,1027.15
2023-02-07T12:00:36.437Z,1027.15
2023-02-07T12:01:36.483Z,1027.08
2023-02-07T12:02:36.411Z,1027.08
2023-02-07T12:03:36.412Z,1027.12
2023-02-07T12:04:36.454Z,1027.07
2023-02-07T12:05:36.535Z,1027.08